Estación Meteorológica Peña el Pijo (Robertgarden) [ 02/03/23 03:21:06 CET ]

Fecha Hora Presion(HPa) Temp (°C) Humedad % Rocio (°C) Viento ( m/s) Direccion Lluvia 1Hora(mm) Lluvia 24H(mm) LLuvia Total(mm)
2010-Jul-12 01:01:21 1015.100 18.1 82 15.0       4.66 130.53
2010-Jul-12 02:01:11 1014.900 16.9 84 14.2       4.66 130.53
2010-Jul-12 03:04:10 1014.500 16.9 83 14.0       4.66 130.53
2010-Jul-12 04:01:14 1014.400 17.1 82 14.0       4.66 130.53
2010-Jul-12 05:01:11 1014.100 15.8 84 13.1       4.66 130.53
2010-Jul-12 06:01:18 1013.700 14.9 87 12.8       4.66 130.53
2010-Jul-12 07:01:12 1013.900 15.3 87 13.2       4.66 130.53
2010-Jul-12 08:01:11 1013.600 18.5 78 14.6       4.66 130.53
2010-Jul-12 09:01:13 1013.400 23.3 66 16.6       4.66 130.53
2010-Jul-12 10:01:14 1013.400 27.9 50 16.5       4.66 130.53
2010-Jul-12 11:01:12 1013.700 31.2 33 12.9       4.66 130.53
2010-Jul-12 12:01:18 1013.700 32.8 30 13.0       4.66 130.53
2010-Jul-12 13:01:12 1013.800 35.4 26 12.8       4.66 130.53
2010-Jul-12 14:01:14 1013.400 35.9 25 12.6       4.66 130.53
2010-Jul-12 15:01:14 1012.900 35.7 24 11.8       4.66 130.53
2010-Jul-12 16:01:18 1012.500 35.6 23 11.1       4.66 130.53
2010-Jul-12 17:01:11 1012.200 36.9 21 10.9       0.51 130.53
2010-Jul-12 18:01:17 1012.000 36.9 20 10.3       0.51 130.53
2010-Jul-12 19:01:13 1011.800 34.2 21 8.7         130.53
2010-Jul-12 20:01:16 1011.900 32.8 21 7.5         130.53
2010-Jul-12 21:01:12 1012.100 28.1 28 7.7         130.53
2010-Jul-12 22:01:13 1012.400 23.1 45 10.4         130.53
2010-Jul-12 23:01:11 1012.900 20.1 49 9.1         130.53

Temperatura Máxima:36°    Temperatura Mínima:14°
Presión Máxima:1015.100 Hpa    Presión Mínima:1011.800 Hpa


Volver